createdAt,value
2022-12-04T00:01:58.508Z,0.16
2022-12-04T00:04:25.136Z,0.14
2022-12-04T00:06:58.621Z,0.12
2022-12-04T00:09:25.694Z,0.12
2022-12-04T00:11:52.136Z,0.14
2022-12-04T00:14:19.100Z,0.12
2022-12-04T00:16:45.842Z,0.12
2022-12-04T00:19:12.429Z,0.12
2022-12-04T00:21:38.982Z,0.14
2022-12-04T00:24:05.969Z,0.15
2022-12-04T00:26:32.502Z,0.15
2022-12-04T00:28:59.098Z,0.16
2022-12-04T00:31:28.214Z,0.12
2022-12-04T00:33:55.416Z,0.14
2022-12-04T00:36:24.598Z,0.13
2022-12-04T00:38:51.899Z,0.14
2022-12-04T00:41:21.159Z,0.15
2022-12-04T00:43:47.780Z,0.12
2022-12-04T00:46:15.457Z,0.14
2022-12-04T00:48:42.885Z,0.12
2022-12-04T00:51:15.874Z,0.14
2022-12-04T00:53:42.884Z,0.14
2022-12-04T00:56:15.012Z,0.12
2022-12-04T00:58:42.782Z,0.14
2022-12-04T01:01:15.798Z,0.13
2022-12-04T01:03:43.387Z,0.17
2022-12-04T01:06:20.828Z,0.17
2022-12-04T01:08:48.112Z,0.15
2022-12-04T01:11:14.547Z,0.16
2022-12-04T01:13:40.947Z,0.14
2022-12-04T01:16:07.738Z,0.14
2022-12-04T01:18:34.347Z,0.14
2022-12-04T01:21:00.812Z,0.16
2022-12-04T01:23:27.222Z,0.16
2022-12-04T01:25:56.003Z,0.16
2022-12-04T01:28:23.002Z,0.17
2022-12-04T01:31:03.189Z,0.17
2022-12-04T01:33:30.250Z,0.17
2022-12-04T01:35:59.181Z,0.16
2022-12-04T01:38:26.188Z,0.16
2022-12-04T01:40:53.230Z,0.17
2022-12-04T01:43:20.178Z,0.16
2022-12-04T01:45:51.471Z,0.15
2022-12-04T01:48:32.019Z,0.16
2022-12-04T01:51:26.814Z,0.17
2022-12-04T01:53:57.423Z,0.17
2022-12-04T01:56:31.616Z,0.16
2022-12-04T01:59:01.573Z,0.14
2022-12-04T02:01:31.910Z,0.16
2022-12-04T02:04:02.212Z,0.17
2022-12-04T02:06:28.608Z,0.17
2022-12-04T02:08:55.304Z,0.16
2022-12-04T02:11:46.562Z,0.18
2022-12-04T02:14:44.399Z,0.17
2022-12-04T02:17:18.936Z,0.17
2022-12-04T02:20:09.596Z,0.18
2022-12-04T02:22:35.933Z,0.17
2022-12-04T02:25:21.467Z,0.19
2022-12-04T02:27:54.116Z,0.18
2022-12-04T02:30:20.753Z,0.18
2022-12-04T02:32:59.776Z,0.18
2022-12-04T02:35:40.642Z,0.18
2022-12-04T02:38:13.919Z,0.18
2022-12-04T02:40:56.506Z,0.20
2022-12-04T02:43:37.912Z,0.22
2022-12-04T02:46:13.662Z,0.22
2022-12-04T02:48:43.911Z,0.20
2022-12-04T02:51:14.807Z,0.22
2022-12-04T02:53:47.371Z,0.23
2022-12-04T02:56:22.813Z,0.22
2022-12-04T02:59:00.004Z,0.20
2022-12-04T03:01:32.390Z,0.21
2022-12-04T03:04:08.462Z,0.23
2022-12-04T03:06:39.286Z,0.22
2022-12-04T03:09:15.827Z,0.21
2022-12-04T03:11:49.917Z,0.20
2022-12-04T03:14:25.566Z,0.20
2022-12-04T03:16:57.341Z,0.22
2022-12-04T03:19:28.243Z,0.21
2022-12-04T03:22:00.011Z,0.21
2022-12-04T03:24:34.163Z,0.22
2022-12-04T03:27:03.656Z,0.21
2022-12-04T03:29:42.913Z,0.23
2022-12-04T03:32:15.871Z,0.23
2022-12-04T03:34:58.894Z,0.23
2022-12-04T03:37:49.522Z,0.24
2022-12-04T03:40:28.793Z,0.25
2022-12-04T03:43:01.834Z,0.25
2022-12-04T03:45:39.193Z,0.23
2022-12-04T03:48:16.764Z,0.25
2022-12-04T03:51:17.879Z,0.28
2022-12-04T03:54:05.082Z,0.25
2022-12-04T03:56:38.641Z,0.23
2022-12-04T03:59:11.118Z,0.25
2022-12-04T04:01:43.176Z,0.25
2022-12-04T04:04:14.725Z,0.23
2022-12-04T04:06:47.228Z,0.23
2022-12-04T04:09:19.143Z,0.22
2022-12-04T04:11:54.835Z,0.23
2022-12-04T04:14:49.638Z,0.23
2022-12-04T04:17:39.144Z,0.23
2022-12-04T04:20:35.445Z,0.22
2022-12-04T04:23:24.292Z,0.24
2022-12-04T04:25:53.476Z,0.21
2022-12-04T04:28:28.669Z,0.18
2022-12-04T04:31:12.160Z,0.21
2022-12-04T04:33:49.179Z,0.20
2022-12-04T04:36:43.334Z,0.21
2022-12-04T04:39:36.307Z,0.19
2022-12-04T04:42:06.626Z,0.19
2022-12-04T04:45:05.426Z,0.21
2022-12-04T04:47:46.129Z,0.20
2022-12-04T04:50:15.094Z,0.19
2022-12-04T04:52:47.003Z,0.22
2022-12-04T04:55:14.932Z,0.23
2022-12-04T04:57:41.456Z,0.23
2022-12-04T05:00:11.912Z,0.23
2022-12-04T05:02:38.462Z,0.23
2022-12-04T05:05:05.841Z,0.23
2022-12-04T05:07:32.335Z,0.22
2022-12-04T05:09:59.270Z,0.20
2022-12-04T05:12:25.912Z,0.21
2022-12-04T05:14:52.583Z,0.20
2022-12-04T05:17:19.466Z,0.20
2022-12-04T05:19:56.227Z,0.19
2022-12-04T05:22:26.717Z,0.19
2022-12-04T05:24:54.177Z,0.20
2022-12-04T05:27:21.723Z,0.20
2022-12-04T05:29:48.860Z,0.21
2022-12-04T05:32:15.727Z,0.21
2022-12-04T05:34:42.426Z,0.20
2022-12-04T05:37:08.895Z,0.21
2022-12-04T05:39:35.671Z,0.23
2022-12-04T05:42:02.089Z,0.23
2022-12-04T05:44:28.464Z,0.23
2022-12-04T05:46:54.980Z,0.26
2022-12-04T05:49:21.498Z,0.25
2022-12-04T05:51:50.577Z,0.27
2022-12-04T05:54:18.954Z,0.26
2022-12-04T05:56:45.827Z,0.25
2022-12-04T05:59:12.956Z,0.24
2022-12-04T06:01:39.845Z,0.25
2022-12-04T06:04:06.399Z,0.24
2022-12-04T06:06:32.921Z,0.27
2022-12-04T06:09:00.092Z,0.27
2022-12-04T06:11:34.822Z,0.25
2022-12-04T06:14:04.169Z,0.24
2022-12-04T06:16:36.414Z,0.23
2022-12-04T06:19:06.899Z,0.24
2022-12-04T06:21:35.391Z,0.27
2022-12-04T06:24:02.374Z,0.26
2022-12-04T06:26:29.027Z,0.25
2022-12-04T06:28:56.864Z,0.24
2022-12-04T06:31:24.187Z,0.26
2022-12-04T06:33:51.123Z,0.25
2022-12-04T06:36:21.093Z,0.28
2022-12-04T06:38:49.220Z,0.27
2022-12-04T06:41:17.875Z,0.28
2022-12-04T06:43:44.744Z,0.28
2022-12-04T06:46:18.747Z,0.29
2022-12-04T06:48:45.578Z,0.28
2022-12-04T06:51:17.532Z,0.29
2022-12-04T06:53:44.726Z,0.30
2022-12-04T06:56:16.247Z,0.30
2022-12-04T06:58:42.741Z,0.30
2022-12-04T07:01:12.141Z,0.28
2022-12-04T07:03:39.549Z,0.30
2022-12-04T07:06:12.077Z,0.29
2022-12-04T07:08:38.599Z,0.29
2022-12-04T07:11:05.539Z,0.29
2022-12-04T07:13:31.915Z,0.28
2022-12-04T07:16:03.032Z,0.28
2022-12-04T07:18:31.070Z,0.30
2022-12-04T07:20:57.912Z,0.29
2022-12-04T07:23:24.469Z,0.31
2022-12-04T07:25:51.039Z,0.30
2022-12-04T07:28:17.543Z,0.31
2022-12-04T07:30:44.611Z,0.31
2022-12-04T07:33:11.084Z,0.29
2022-12-04T07:35:37.505Z,0.30
2022-12-04T07:38:03.907Z,0.32
2022-12-04T07:40:30.816Z,0.31
2022-12-04T07:42:57.299Z,0.31
2022-12-04T07:45:23.841Z,0.32
2022-12-04T07:47:50.230Z,0.33
2022-12-04T07:50:16.814Z,0.33
2022-12-04T07:52:43.281Z,0.33
2022-12-04T07:55:09.868Z,0.34
2022-12-04T07:57:36.444Z,0.35
2022-12-04T08:00:03.809Z,0.36
2022-12-04T08:02:38.310Z,0.38
2022-12-04T08:05:05.102Z,0.41
2022-12-04T08:07:32.261Z,0.41
2022-12-04T08:09:58.814Z,0.42
2022-12-04T08:12:25.310Z,0.43
2022-12-04T08:14:51.774Z,0.44
2022-12-04T08:17:18.361Z,0.47
2022-12-04T08:19:44.825Z,0.45
2022-12-04T08:22:11.313Z,0.46
2022-12-04T08:24:37.785Z,0.47
2022-12-04T08:27:04.483Z,0.50
2022-12-04T08:29:30.926Z,0.51
2022-12-04T08:31:57.385Z,0.51
2022-12-04T08:34:23.900Z,0.52
2022-12-04T08:36:50.452Z,0.54
2022-12-04T08:39:16.910Z,0.53
2022-12-04T08:41:43.413Z,0.55
2022-12-04T08:44:10.243Z,0.58
2022-12-04T08:46:37.019Z,0.59
2022-12-04T08:49:03.565Z,0.59
2022-12-04T08:51:32.274Z,0.59
2022-12-04T08:54:01.918Z,0.59
2022-12-04T08:56:30.637Z,0.60
2022-12-04T08:58:57.679Z,0.61
2022-12-04T09:01:25.718Z,0.61
2022-12-04T09:03:52.766Z,0.63
2022-12-04T09:06:19.705Z,0.62
2022-12-04T09:08:46.698Z,0.61
2022-12-04T09:11:16.873Z,0.59
2022-12-04T09:13:44.571Z,0.60
2022-12-04T09:16:14.762Z,0.60
2022-12-04T09:18:41.400Z,0.60
2022-12-04T09:21:11.553Z,0.62
2022-12-04T09:23:39.395Z,0.66
2022-12-04T09:26:15.302Z,0.64
2022-12-04T09:28:41.716Z,0.62
2022-12-04T09:31:08.220Z,0.59
2022-12-04T09:33:34.744Z,0.58
2022-12-04T09:36:02.845Z,0.59
2022-12-04T09:38:30.388Z,0.61
2022-12-04T09:41:30.052Z,0.60
2022-12-04T09:44:10.440Z,0.58
2022-12-04T09:46:45.495Z,0.56
2022-12-04T09:49:17.121Z,0.58
2022-12-04T09:51:43.903Z,0.55
2022-12-04T09:54:18.514Z,0.54
2022-12-04T09:56:53.448Z,0.56
2022-12-04T09:59:25.448Z,0.59
2022-12-04T10:01:58.633Z,0.63
2022-12-04T10:04:25.545Z,0.64
2022-12-04T10:07:10.995Z,0.65
2022-12-04T10:09:55.135Z,0.64
2022-12-04T10:12:44.760Z,0.64
2022-12-04T10:15:29.617Z,0.68
2022-12-04T10:18:23.860Z,0.72
2022-12-04T10:21:04.771Z,0.70
2022-12-04T10:23:40.711Z,0.72
2022-12-04T10:26:16.959Z,0.74
2022-12-04T10:28:55.745Z,0.77
2022-12-04T10:31:24.535Z,0.75
2022-12-04T10:33:55.755Z,0.74
2022-12-04T10:36:28.082Z,0.77
2022-12-04T10:39:14.182Z,0.76
2022-12-04T10:41:52.254Z,0.75
2022-12-04T10:44:22.032Z,0.77
2022-12-04T10:46:50.995Z,0.76
2022-12-04T10:49:22.788Z,0.76
2022-12-04T10:51:49.600Z,0.76
2022-12-04T10:54:26.950Z,0.77
2022-12-04T10:57:08.220Z,0.81
2022-12-04T10:59:35.477Z,0.82
2022-12-04T11:02:22.524Z,0.83
2022-12-04T11:05:01.308Z,0.88
2022-12-04T11:07:31.894Z,0.92
2022-12-04T11:10:03.337Z,0.93
2022-12-04T11:12:32.112Z,0.91
2022-12-04T11:15:12.350Z,0.93
2022-12-04T11:17:39.231Z,0.92
2022-12-04T11:20:09.414Z,0.92
2022-12-04T11:22:48.070Z,0.92
2022-12-04T11:25:18.861Z,0.90
2022-12-04T11:27:55.719Z,0.94
2022-12-04T11:30:29.571Z,0.96
2022-12-04T11:32:57.152Z,0.96
2022-12-04T11:35:26.118Z,0.96
2022-12-04T11:37:59.160Z,0.96
2022-12-04T11:40:26.918Z,0.97
2022-12-04T11:43:25.268Z,0.99
2022-12-04T11:46:00.157Z,1.02
2022-12-04T11:48:29.113Z,1.04
2022-12-04T11:51:21.456Z,1.06
2022-12-04T11:53:55.715Z,1.07
2022-12-04T11:56:46.188Z,1.07
2022-12-04T11:59:12.650Z,1.06
2022-12-04T12:02:11.194Z,1.07
2022-12-04T12:04:49.895Z,1.09
2022-12-04T12:07:41.287Z,1.11
2022-12-04T12:10:17.435Z,1.12
2022-12-04T12:13:03.543Z,1.13
2022-12-04T12:15:48.746Z,1.13
2022-12-04T12:18:40.957Z,1.15
2022-12-04T12:21:14.426Z,1.18
2022-12-04T12:24:08.541Z,1.19
2022-12-04T12:27:02.839Z,1.19
2022-12-04T12:29:48.205Z,1.20
2022-12-04T12:32:40.112Z,1.24
2022-12-04T12:35:29.901Z,1.23
2022-12-04T12:38:01.501Z,1.23
2022-12-04T12:40:44.740Z,1.25
2022-12-04T12:43:31.825Z,1.26
2022-12-04T12:46:27.585Z,1.23
2022-12-04T12:49:06.406Z,1.24
2022-12-04T12:51:58.458Z,1.28
2022-12-04T12:54:53.406Z,1.30
2022-12-04T12:57:37.587Z,1.31
2022-12-04T13:00:15.573Z,1.29
2022-12-04T13:03:04.029Z,1.29
2022-12-04T13:05:37.264Z,1.30
2022-12-04T13:08:27.675Z,1.30
2022-12-04T13:11:13.463Z,1.30
2022-12-04T13:14:00.927Z,1.30
2022-12-04T13:16:40.642Z,1.32
2022-12-04T13:19:07.104Z,1.33
2022-12-04T13:21:37.438Z,1.33
2022-12-04T13:24:37.659Z,1.33
2022-12-04T13:27:34.701Z,1.33
2022-12-04T13:30:09.842Z,1.33
2022-12-04T13:32:57.696Z,1.33
2022-12-04T13:36:01.979Z,1.33
2022-12-04T13:38:49.911Z,1.32
2022-12-04T13:41:23.958Z,1.30
2022-12-04T13:43:53.030Z,1.28
2022-12-04T13:46:31.366Z,1.31
2022-12-04T13:49:08.613Z,1.33
2022-12-04T13:51:39.051Z,1.34
2022-12-04T13:54:11.759Z,1.35
2022-12-04T13:56:40.671Z,1.33
2022-12-04T13:59:36.097Z,1.33
2022-12-04T14:02:21.303Z,1.33
2022-12-04T14:05:01.873Z,1.33
2022-12-04T14:07:38.811Z,1.33
2022-12-04T14:10:07.587Z,1.35
2022-12-04T14:12:39.049Z,1.33
2022-12-04T14:15:38.994Z,1.33
2022-12-04T14:18:28.200Z,1.29
2022-12-04T14:21:05.424Z,1.29
2022-12-04T14:23:41.014Z,1.28
2022-12-04T14:26:21.975Z,1.26
2022-12-04T14:28:48.879Z,1.26
2022-12-04T14:31:24.037Z,1.26
2022-12-04T14:33:56.180Z,1.25
2022-12-04T14:36:33.352Z,1.26
2022-12-04T14:39:24.288Z,1.25
2022-12-04T14:41:52.173Z,1.24
2022-12-04T14:44:27.347Z,1.24
2022-12-04T14:46:57.541Z,1.22
2022-12-04T14:50:01.382Z,1.22
2022-12-04T14:53:09.272Z,1.21
2022-12-04T14:56:07.434Z,1.20
2022-12-04T14:58:37.665Z,1.18
2022-12-04T15:01:15.993Z,1.19
2022-12-04T15:03:45.919Z,1.20
2022-12-04T15:06:21.595Z,1.21
2022-12-04T15:09:19.076Z,1.19
2022-12-04T15:12:08.934Z,1.18
2022-12-04T15:14:51.323Z,1.20
2022-12-04T15:17:18.777Z,1.21
2022-12-04T15:19:45.779Z,1.20
2022-12-04T15:22:20.599Z,1.20
2022-12-04T15:24:47.054Z,1.19
2022-12-04T15:27:16.681Z,1.20
2022-12-04T15:29:48.229Z,1.20
2022-12-04T15:32:17.406Z,1.20
2022-12-04T15:34:48.872Z,1.20
2022-12-04T15:37:28.614Z,1.20
2022-12-04T15:39:56.502Z,1.21
2022-12-04T15:42:27.290Z,1.21
2022-12-04T15:45:01.185Z,1.22
2022-12-04T15:47:49.903Z,1.25
2022-12-04T15:50:16.375Z,1.26
2022-12-04T15:53:14.721Z,1.26
2022-12-04T15:55:56.872Z,1.28
2022-12-04T15:58:28.159Z,1.29
2022-12-04T16:01:05.627Z,1.30
2022-12-04T16:03:38.757Z,1.29
2022-12-04T16:06:29.742Z,1.33
2022-12-04T16:09:01.343Z,1.33
2022-12-04T16:11:37.246Z,1.35
2022-12-04T16:14:09.471Z,1.38
2022-12-04T16:16:38.421Z,1.37
2022-12-04T16:19:35.285Z,1.42
2022-12-04T16:22:03.660Z,1.45
2022-12-04T16:24:30.716Z,1.43
2022-12-04T16:27:00.081Z,1.46
2022-12-04T16:29:26.576Z,1.47
2022-12-04T16:31:55.158Z,1.49
2022-12-04T16:34:26.074Z,1.49
2022-12-04T16:36:52.506Z,1.49
2022-12-04T16:39:18.977Z,1.51
2022-12-04T16:41:45.442Z,1.53
2022-12-04T16:44:15.511Z,1.53
2022-12-04T16:46:42.748Z,1.53
2022-12-04T16:49:12.860Z,1.54
2022-12-04T16:51:43.630Z,1.56
2022-12-04T16:54:12.105Z,1.59
2022-12-04T16:56:39.067Z,1.59
2022-12-04T16:59:11.593Z,1.62
2022-12-04T17:01:47.772Z,1.63
2022-12-04T17:04:15.916Z,1.64
2022-12-04T17:06:42.558Z,1.66
2022-12-04T17:09:09.639Z,1.66
2022-12-04T17:11:37.048Z,1.67
2022-12-04T17:14:07.380Z,1.69
2022-12-04T17:16:38.481Z,1.72
2022-12-04T17:19:05.157Z,1.73
2022-12-04T17:21:33.688Z,1.75
2022-12-04T17:24:01.010Z,1.78
2022-12-04T17:26:28.235Z,1.77
2022-12-04T17:28:54.673Z,1.78
2022-12-04T17:31:23.924Z,1.81
2022-12-04T17:33:50.864Z,1.82
2022-12-04T17:36:20.162Z,1.83
2022-12-04T17:38:47.116Z,1.83
2022-12-04T17:41:15.063Z,1.83
2022-12-04T17:43:43.528Z,1.85
2022-12-04T17:46:12.008Z,1.87
2022-12-04T17:48:38.928Z,1.86
2022-12-04T17:51:08.109Z,1.89
2022-12-04T17:53:35.126Z,1.89
2022-12-04T17:56:13.147Z,1.90
2022-12-04T17:58:40.207Z,1.91
2022-12-04T18:01:13.805Z,1.93
2022-12-04T18:03:41.374Z,1.92
2022-12-04T18:06:13.329Z,1.92
2022-12-04T18:08:55.081Z,1.94
2022-12-04T18:11:23.788Z,1.93
2022-12-04T18:13:56.209Z,1.97
2022-12-04T18:16:22.901Z,1.96
2022-12-04T18:18:50.807Z,1.96
2022-12-04T18:21:17.368Z,1.98
2022-12-04T18:23:46.396Z,2.00
2022-12-04T18:26:16.093Z,2.00
2022-12-04T18:28:43.407Z,2.00
2022-12-04T18:31:09.986Z,2.01
2022-12-04T18:33:38.918Z,2.01
2022-12-04T18:36:06.796Z,1.99
2022-12-04T18:38:33.226Z,2.00
2022-12-04T18:41:06.919Z,1.98
2022-12-04T18:43:45.155Z,1.97
2022-12-04T18:46:13.983Z,1.97
2022-12-04T18:48:42.763Z,1.96
2022-12-04T18:51:15.962Z,1.96
2022-12-04T18:53:43.251Z,1.97
2022-12-04T18:56:09.911Z,1.96
2022-12-04T18:58:36.457Z,1.94
2022-12-04T19:01:11.335Z,1.93
2022-12-04T19:03:38.312Z,1.92
2022-12-04T19:06:05.313Z,1.90
2022-12-04T19:08:34.346Z,1.92
2022-12-04T19:11:07.162Z,1.90
2022-12-04T19:13:34.146Z,1.91
2022-12-04T19:16:00.910Z,1.92
2022-12-04T19:18:27.575Z,1.91
2022-12-04T19:20:54.366Z,1.91
2022-12-04T19:23:22.791Z,1.90
2022-12-04T19:26:02.712Z,1.90
2022-12-04T19:28:29.907Z,1.91
2022-12-04T19:30:56.666Z,1.92
2022-12-04T19:33:24.109Z,1.91
2022-12-04T19:35:59.404Z,1.90
2022-12-04T19:38:26.891Z,1.93
2022-12-04T19:41:10.175Z,1.93
2022-12-04T19:43:38.599Z,1.92
2022-12-04T19:46:07.015Z,1.94
2022-12-04T19:48:33.990Z,1.94
2022-12-04T19:51:12.087Z,1.95
2022-12-04T19:53:41.156Z,1.96
2022-12-04T19:56:11.554Z,1.95
2022-12-04T19:58:38.937Z,1.96
2022-12-04T20:01:07.806Z,1.97
2022-12-04T20:03:35.634Z,1.97
2022-12-04T20:06:07.833Z,1.97
2022-12-04T20:08:35.374Z,1.99
2022-12-04T20:11:05.712Z,1.99
2022-12-04T20:13:35.505Z,2.00
2022-12-04T20:16:05.154Z,1.99
2022-12-04T20:18:32.032Z,2.02
2022-12-04T20:21:00.779Z,2.03
2022-12-04T20:23:54.265Z,2.04
2022-12-04T20:26:26.318Z,2.04
2022-12-04T20:28:55.771Z,2.04
2022-12-04T20:31:28.823Z,2.06
2022-12-04T20:33:58.399Z,2.07
2022-12-04T20:36:27.741Z,2.07
2022-12-04T20:38:55.372Z,2.08
2022-12-04T20:41:22.632Z,2.08
2022-12-04T20:43:49.297Z,2.09
2022-12-04T20:46:24.903Z,2.12
2022-12-04T20:48:53.384Z,2.12
2022-12-04T20:51:23.489Z,2.12
2022-12-04T20:53:50.839Z,2.13
2022-12-04T20:56:19.139Z,2.13
2022-12-04T20:58:45.899Z,2.15
2022-12-04T21:01:15.636Z,2.17
2022-12-04T21:03:43.124Z,2.17
2022-12-04T21:06:19.669Z,2.20
2022-12-04T21:08:53.300Z,2.19
2022-12-04T21:11:20.820Z,2.22
2022-12-04T21:14:05.973Z,2.21
2022-12-04T21:16:32.861Z,2.22
2022-12-04T21:18:59.338Z,2.23
2022-12-04T21:21:26.823Z,2.26
2022-12-04T21:23:53.390Z,2.25
2022-12-04T21:26:20.574Z,2.28
2022-12-04T21:28:47.515Z,2.29
2022-12-04T21:31:14.555Z,2.32
2022-12-04T21:33:41.038Z,2.33
2022-12-04T21:36:09.437Z,2.34
2022-12-04T21:38:37.995Z,2.36
2022-12-04T21:41:06.604Z,2.37
2022-12-04T21:43:34.068Z,2.36
2022-12-04T21:46:09.347Z,2.36
2022-12-04T21:48:36.421Z,2.39
2022-12-04T21:51:21.271Z,2.40
2022-12-04T21:53:54.751Z,2.39
2022-12-04T21:56:22.504Z,2.41
2022-12-04T21:58:49.307Z,2.41
2022-12-04T22:01:17.486Z,2.42
2022-12-04T22:03:44.656Z,2.42
2022-12-04T22:06:11.219Z,2.43
2022-12-04T22:08:39.888Z,2.46
2022-12-04T22:11:08.807Z,2.47
2022-12-04T22:13:36.535Z,2.46
2022-12-04T22:16:04.848Z,2.48
2022-12-04T22:18:31.722Z,2.49
2022-12-04T22:20:58.170Z,2.49
2022-12-04T22:23:24.611Z,2.51
2022-12-04T22:25:51.279Z,2.52
2022-12-04T22:28:18.344Z,2.52
2022-12-04T22:30:44.738Z,2.53
2022-12-04T22:33:11.246Z,2.53
2022-12-04T22:35:37.701Z,2.55
2022-12-04T22:38:04.117Z,2.56
2022-12-04T22:40:30.558Z,2.57
2022-12-04T22:42:56.926Z,2.58
2022-12-04T22:45:23.367Z,2.60
2022-12-04T22:47:49.758Z,2.60
2022-12-04T22:50:16.192Z,2.61
2022-12-04T22:52:42.817Z,2.61
2022-12-04T22:55:09.418Z,2.60
2022-12-04T22:57:36.003Z,2.62
2022-12-04T23:00:02.564Z,2.63
2022-12-04T23:02:29.062Z,2.65
2022-12-04T23:04:55.554Z,2.66
2022-12-04T23:07:22.203Z,2.65
2022-12-04T23:09:48.609Z,2.69
2022-12-04T23:12:15.634Z,2.70
2022-12-04T23:14:42.120Z,2.72
2022-12-04T23:17:08.601Z,2.74
2022-12-04T23:19:35.194Z,2.75
2022-12-04T23:22:01.690Z,2.75
2022-12-04T23:24:28.736Z,2.77
2022-12-04T23:26:55.318Z,2.78
2022-12-04T23:29:52.861Z,2.79
2022-12-04T23:32:08.142Z,2.81
2022-12-04T23:34:34.576Z,2.81
2022-12-04T23:37:00.957Z,2.80
2022-12-04T23:39:27.419Z,2.82
2022-12-04T23:41:53.878Z,2.84
2022-12-04T23:44:20.306Z,2.86
2022-12-04T23:46:46.844Z,2.86
2022-12-04T23:49:13.650Z,2.89
2022-12-04T23:51:40.110Z,2.90
2022-12-04T23:54:06.671Z,2.91
2022-12-04T23:56:33.116Z,2.92
2022-12-04T23:58:59.772Z,2.92
